sensor_id;sensor_type;location;lat;lon;timestamp;pressure;altitude;pressure_sealevel;temperature;humidity
64516;BME280;50891;37.380;-122.076;2022-07-19T00:02:10;100951.78;;;31.39;29.59
64516;BME280;50891;37.380;-122.076;2022-07-19T00:04:36;100947.44;;;31.38;29.18
64516;BME280;50891;37.380;-122.076;2022-07-19T00:07:02;100950.97;;;31.39;28.58
64516;BME280;50891;37.380;-122.076;2022-07-19T00:09:29;100951.75;;;31.29;29.08
64516;BME280;50891;37.380;-122.076;2022-07-19T00:11:55;100945.19;;;31.20;29.23
64516;BME280;50891;37.380;-122.076;2022-07-19T00:14:22;100950.06;;;31.18;29.55
64516;BME280;50891;37.380;-122.076;2022-07-19T00:16:48;100947.34;;;31.13;29.63
64516;BME280;50891;37.380;-122.076;2022-07-19T00:19:15;100947.06;;;31.14;29.80
64516;BME280;50891;37.380;-122.076;2022-07-19T00:21:41;100952.25;;;31.16;29.43
64516;BME280;50891;37.380;-122.076;2022-07-19T00:24:08;100943.03;;;31.22;29.82
64516;BME280;50891;37.380;-122.076;2022-07-19T00:26:34;100941.94;;;31.23;30.10
64516;BME280;50891;37.380;-122.076;2022-07-19T00:29:01;100951.66;;;31.08;30.19
64516;BME280;50891;37.380;-122.076;2022-07-19T00:31:28;100950.28;;;31.06;30.58
64516;BME280;50891;37.380;-122.076;2022-07-19T00:33:54;100953.00;;;31.01;30.54
64516;BME280;50891;37.380;-122.076;2022-07-19T00:36:20;100946.69;;;30.95;30.74
64516;BME280;50891;37.380;-122.076;2022-07-19T00:38:46;100946.19;;;30.98;30.53
64516;BME280;50891;37.380;-122.076;2022-07-19T00:41:13;100947.91;;;31.15;30.60
64516;BME280;50891;37.380;-122.076;2022-07-19T00:43:40;100945.47;;;31.23;30.26
64516;BME280;50891;37.380;-122.076;2022-07-19T00:46:20;100940.88;;;31.24;30.25
64516;BME280;50891;37.380;-122.076;2022-07-19T00:48:48;100934.34;;;31.25;30.19
64516;BME280;50891;37.380;-122.076;2022-07-19T00:51:16;100943.03;;;31.22;30.17
64516;BME280;50891;37.380;-122.076;2022-07-19T00:53:43;100939.13;;;31.02;30.23
64516;BME280;50891;37.380;-122.076;2022-07-19T00:56:11;100940.72;;;30.93;30.41
64516;BME280;50891;37.380;-122.076;2022-07-19T00:58:39;100943.31;;;30.78;31.01
64516;BME280;50891;37.380;-122.076;2022-07-19T01:01:07;100940.31;;;30.79;31.25
64516;BME280;50891;37.380;-122.076;2022-07-19T01:03:39;100940.97;;;30.86;31.21
64516;BME280;50891;37.380;-122.076;2022-07-19T01:06:07;100943.97;;;30.90;31.20
64516;BME280;50891;37.380;-122.076;2022-07-19T01:08:35;100952.69;;;30.97;31.08
64516;BME280;50891;37.380;-122.076;2022-07-19T01:11:05;100955.63;;;30.91;30.65
64516;BME280;50891;37.380;-122.076;2022-07-19T01:13:32;100961.06;;;30.91;30.60
64516;BME280;50891;37.380;-122.076;2022-07-19T01:15:59;100957.19;;;30.81;30.71
64516;BME280;50891;37.380;-122.076;2022-07-19T01:18:26;100964.50;;;30.81;30.86
64516;BME280;50891;37.380;-122.076;2022-07-19T01:20:52;100967.47;;;30.74;30.84
64516;BME280;50891;37.380;-122.076;2022-07-19T01:23:18;100969.19;;;30.48;31.24
64516;BME280;50891;37.380;-122.076;2022-07-19T01:25:44;100967.56;;;30.47;31.59
64516;BME280;50891;37.380;-122.076;2022-07-19T01:28:11;100971.38;;;30.51;31.66
64516;BME280;50891;37.380;-122.076;2022-07-19T01:30:37;100976.31;;;30.59;31.76
64516;BME280;50891;37.380;-122.076;2022-07-19T01:33:04;100982.22;;;30.51;32.12
64516;BME280;50891;37.380;-122.076;2022-07-19T01:35:30;100980.34;;;30.52;32.42
64516;BME280;50891;37.380;-122.076;2022-07-19T01:37:56;100982.81;;;30.58;32.47
64516;BME280;50891;37.380;-122.076;2022-07-19T01:40:23;100985.59;;;30.63;32.52
64516;BME280;50891;37.380;-122.076;2022-07-19T01:42:50;100985.09;;;30.72;32.42
64516;BME280;50891;37.380;-122.076;2022-07-19T01:45:18;100982.47;;;30.82;32.35
64516;BME280;50891;37.380;-122.076;2022-07-19T01:47:45;100980.88;;;30.86;32.01
64516;BME280;50891;37.380;-122.076;2022-07-19T01:50:14;100982.97;;;30.79;32.08
64516;BME280;50891;37.380;-122.076;2022-07-19T01:52:40;100985.75;;;30.84;32.17
64516;BME280;50891;37.380;-122.076;2022-07-19T01:55:07;100994.22;;;30.93;32.40
64516;BME280;50891;37.380;-122.076;2022-07-19T01:57:33;101001.34;;;30.99;32.04
64516;BME280;50891;37.380;-122.076;2022-07-19T02:00:00;100991.28;;;30.99;32.13
64516;BME280;50891;37.380;-122.076;2022-07-19T02:02:26;101001.59;;;30.97;31.93
64516;BME280;50891;37.380;-122.076;2022-07-19T02:04:52;100998.31;;;30.95;31.67
64516;BME280;50891;37.380;-122.076;2022-07-19T02:07:18;100997.75;;;30.93;31.81
64516;BME280;50891;37.380;-122.076;2022-07-19T02:09:45;100998.31;;;30.95;31.75
64516;BME280;50891;37.380;-122.076;2022-07-19T02:12:11;100997.28;;;31.01;32.00
64516;BME280;50891;37.380;-122.076;2022-07-19T02:14:37;101004.09;;;31.09;32.09
64516;BME280;50891;37.380;-122.076;2022-07-19T02:17:03;100998.44;;;31.16;32.04
64516;BME280;50891;37.380;-122.076;2022-07-19T02:19:31;101004.97;;;31.20;31.89
64516;BME280;50891;37.380;-122.076;2022-07-19T02:21:57;101003.63;;;31.22;31.90
64516;BME280;50891;37.380;-122.076;2022-07-19T02:24:23;100999.59;;;31.30;31.89
64516;BME280;50891;37.380;-122.076;2022-07-19T02:26:49;100997.72;;;31.36;32.00
64516;BME280;50891;37.380;-122.076;2022-07-19T02:29:16;100996.38;;;31.38;31.89
64516;BME280;50891;37.380;-122.076;2022-07-19T02:31:42;101009.94;;;31.33;31.61
64516;BME280;50891;37.380;-122.076;2022-07-19T02:34:10;101007.47;;;31.32;31.66
64516;BME280;50891;37.380;-122.076;2022-07-19T02:36:36;101008.84;;;31.34;31.39
64516;BME280;50891;37.380;-122.076;2022-07-19T02:39:02;101008.03;;;31.28;31.55
64516;BME280;50891;37.380;-122.076;2022-07-19T02:41:28;101003.09;;;31.30;31.51
64516;BME280;50891;37.380;-122.076;2022-07-19T02:43:55;101004.50;;;31.33;31.41
64516;BME280;50891;37.380;-122.076;2022-07-19T02:46:21;101012.06;;;31.26;31.31
64516;BME280;50891;37.380;-122.076;2022-07-19T02:48:47;100995.75;;;31.26;31.09
64516;BME280;50891;37.380;-122.076;2022-07-19T02:51:13;100996.00;;;31.19;31.18
64516;BME280;50891;37.380;-122.076;2022-07-19T02:53:39;101002.50;;;31.18;31.40
64516;BME280;50891;37.380;-122.076;2022-07-19T02:56:06;101006.09;;;31.24;31.39
64516;BME280;50891;37.380;-122.076;2022-07-19T02:58:32;100998.44;;;31.21;31.35
64516;BME280;50891;37.380;-122.076;2022-07-19T03:00:59;101004.97;;;31.20;31.24
64516;BME280;50891;37.380;-122.076;2022-07-19T03:03:25;101010.94;;;31.17;31.59
64516;BME280;50891;37.380;-122.076;2022-07-19T03:06:10;101015.28;;;31.13;31.41
64516;BME280;50891;37.380;-122.076;2022-07-19T03:08:37;101015.25;;;31.07;31.71
64516;BME280;50891;37.380;-122.076;2022-07-19T03:11:04;101016.31;;;31.06;31.61
64516;BME280;50891;37.380;-122.076;2022-07-19T03:13:30;101013.34;;;31.08;31.76
64516;BME280;50891;37.380;-122.076;2022-07-19T03:15:57;101014.69;;;31.05;31.55
64516;BME280;50891;37.380;-122.076;2022-07-19T03:18:23;101014.38;;;31.02;31.69
64516;BME280;50891;37.380;-122.076;2022-07-19T03:20:50;101010.28;;;30.99;32.01
64516;BME280;50891;37.380;-122.076;2022-07-19T03:23:16;101023.31;;;30.97;31.93
64516;BME280;50891;37.380;-122.076;2022-07-19T03:25:42;101023.31;;;30.97;32.20
64516;BME280;50891;37.380;-122.076;2022-07-19T03:28:08;101024.41;;;30.96;32.23
64516;BME280;50891;37.380;-122.076;2022-07-19T03:30:34;101027.38;;;30.95;32.24
64516;BME280;50891;37.380;-122.076;2022-07-19T03:33:01;101025.69;;;30.88;32.40
64516;BME280;50891;37.380;-122.076;2022-07-19T03:35:27;101031.97;;;30.89;32.59
64516;BME280;50891;37.380;-122.076;2022-07-19T03:37:54;101025.44;;;30.90;32.19
64516;BME280;50891;37.380;-122.076;2022-07-19T03:40:20;101036.88;;;30.92;32.33
64516;BME280;50891;37.380;-122.076;2022-07-19T03:42:46;101034.41;;;30.91;32.23
64516;BME280;50891;37.380;-122.076;2022-07-19T03:45:12;101031.06;;;30.83;32.85
64516;BME280;50891;37.380;-122.076;2022-07-19T03:47:38;101033.72;;;30.73;33.14
64516;BME280;50891;37.380;-122.076;2022-07-19T03:50:05;101036.41;;;30.68;33.12
64516;BME280;50891;37.380;-122.076;2022-07-19T03:52:31;101037.44;;;30.62;33.26
64516;BME280;50891;37.380;-122.076;2022-07-19T03:54:58;101038.78;;;30.59;33.29
64516;BME280;50891;37.380;-122.076;2022-07-19T03:57:24;101050.97;;;30.57;33.39
64516;BME280;50891;37.380;-122.076;2022-07-19T03:59:50;101045.25;;;30.58;33.40
64516;BME280;50891;37.380;-122.076;2022-07-19T04:02:16;101051.22;;;30.55;33.74
64516;BME280;50891;37.380;-122.076;2022-07-19T04:04:43;101056.91;;;30.54;33.82
64516;BME280;50891;37.380;-122.076;2022-07-19T04:07:09;101061.50;;;30.53;33.92
64516;BME280;50891;37.380;-122.076;2022-07-19T04:09:35;101064.50;;;30.52;33.94
64516;BME280;50891;37.380;-122.076;2022-07-19T04:12:01;101060.69;;;30.53;33.96
64516;BME280;50891;37.380;-122.076;2022-07-19T04:14:28;101065.06;;;30.54;33.83
64516;BME280;50891;37.380;-122.076;2022-07-19T04:16:54;101066.13;;;30.53;33.88
64516;BME280;50891;37.380;-122.076;2022-07-19T04:19:20;101067.50;;;30.55;34.14
64516;BME280;50891;37.380;-122.076;2022-07-19T04:21:46;101072.38;;;30.53;33.87
64516;BME280;50891;37.380;-122.076;2022-07-19T04:24:12;101066.69;;;30.55;33.90
64516;BME280;50891;37.380;-122.076;2022-07-19T04:26:39;101069.66;;;30.53;33.87
64516;BME280;50891;37.380;-122.076;2022-07-19T04:29:05;101076.69;;;30.49;33.93
64516;BME280;50891;37.380;-122.076;2022-07-19T04:31:31;101083.75;;;30.50;33.95
64516;BME280;50891;37.380;-122.076;2022-07-19T04:33:57;101082.94;;;30.50;33.92
64516;BME280;50891;37.380;-122.076;2022-07-19T04:36:24;101094.38;;;30.52;33.97
64516;BME280;50891;37.380;-122.076;2022-07-19T04:38:50;101094.09;;;30.53;34.12
64516;BME280;50891;37.380;-122.076;2022-07-19T04:41:16;101101.66;;;30.51;33.88
64516;BME280;50891;37.380;-122.076;2022-07-19T04:43:42;101103.56;;;30.51;33.84
64516;BME280;50891;37.380;-122.076;2022-07-19T04:46:08;101102.50;;;30.52;34.02
64516;BME280;50891;37.380;-122.076;2022-07-19T04:48:35;101100.03;;;30.50;33.78
64516;BME280;50891;37.380;-122.076;2022-07-19T04:51:01;101104.09;;;30.48;34.02
64516;BME280;50891;37.380;-122.076;2022-07-19T04:53:27;101105.16;;;30.46;33.69
64516;BME280;50891;37.380;-122.076;2022-07-19T04:55:53;101107.56;;;30.43;34.01
64516;BME280;50891;37.380;-122.076;2022-07-19T04:58:19;101115.72;;;30.43;34.17
64516;BME280;50891;37.380;-122.076;2022-07-19T05:00:45;101107.53;;;30.38;34.19
64516;BME280;50891;37.380;-122.076;2022-07-19T05:03:12;101103.69;;;30.34;34.13
64516;BME280;50891;37.380;-122.076;2022-07-19T05:05:38;101110.19;;;30.33;34.48
64516;BME280;50891;37.380;-122.076;2022-07-19T05:08:04;101116.44;;;30.33;34.32
64516;BME280;50891;37.380;-122.076;2022-07-19T05:10:30;101117.75;;;30.31;34.15
64516;BME280;50891;37.380;-122.076;2022-07-19T05:12:57;101112.81;;;30.28;34.46
64516;BME280;50891;37.380;-122.076;2022-07-19T05:15:23;101118.75;;;30.24;34.58
64516;BME280;50891;37.380;-122.076;2022-07-19T05:17:50;101117.13;;;30.23;34.60
64516;BME280;50891;37.380;-122.076;2022-07-19T05:20:16;101126.31;;;30.22;34.32
64516;BME280;50891;37.380;-122.076;2022-07-19T05:22:43;101117.88;;;30.19;34.70
64516;BME280;50891;37.380;-122.076;2022-07-19T05:25:09;101124.59;;;30.16;34.66
64516;BME280;50891;37.380;-122.076;2022-07-19T05:27:36;101132.22;;;30.14;34.61
64516;BME280;50891;37.380;-122.076;2022-07-19T05:30:04;101128.66;;;30.14;34.71
64516;BME280;50891;37.380;-122.076;2022-07-19T05:32:31;101127.03;;;30.13;34.65
64516;BME280;50891;37.380;-122.076;2022-07-19T05:34:57;101128.91;;;30.12;34.59
64516;BME280;50891;37.380;-122.076;2022-07-19T05:37:24;101132.13;;;30.09;34.86
64516;BME280;50891;37.380;-122.076;2022-07-19T05:39:50;101130.16;;;30.04;34.71
64516;BME280;50891;37.380;-122.076;2022-07-19T05:42:16;101128.53;;;30.03;34.65
64516;BME280;50891;37.380;-122.076;2022-07-19T05:44:42;101130.69;;;30.01;35.01
64516;BME280;50891;37.380;-122.076;2022-07-19T05:47:08;101129.06;;;30.00;34.79
64516;BME280;50891;37.380;-122.076;2022-07-19T05:49:35;101123.31;;;29.97;34.69
64516;BME280;50891;37.380;-122.076;2022-07-19T05:52:01;101126.59;;;29.99;34.85
64516;BME280;50891;37.380;-122.076;2022-07-19T05:54:27;101129.25;;;29.94;34.64
64516;BME280;50891;37.380;-122.076;2022-07-19T05:56:53;101132.72;;;29.89;34.67
64516;BME280;50891;37.380;-122.076;2022-07-19T05:59:20;101134.53;;;29.83;34.77
64516;BME280;50891;37.380;-122.076;2022-07-19T06:01:48;101137.50;;;29.82;34.71
64516;BME280;50891;37.380;-122.076;2022-07-19T06:04:15;101139.13;;;29.83;34.82
64516;BME280;50891;37.380;-122.076;2022-07-19T06:06:41;101138.81;;;29.79;34.66
64516;BME280;50891;37.380;-122.076;2022-07-19T06:09:08;101141.78;;;29.78;34.67
64516;BME280;50891;37.380;-122.076;2022-07-19T06:11:35;101139.56;;;29.75;34.99
64516;BME280;50891;37.380;-122.076;2022-07-19T06:14:02;101138.72;;;29.74;34.96
64516;BME280;50891;37.380;-122.076;2022-07-19T06:16:28;101128.16;;;29.73;34.86
64516;BME280;50891;37.380;-122.076;2022-07-19T06:18:54;101129.47;;;29.70;35.12
64516;BME280;50891;37.380;-122.076;2022-07-19T06:21:21;101132.69;;;29.67;34.84
64516;BME280;50891;37.380;-122.076;2022-07-19T06:23:48;101134.78;;;29.65;34.87
64516;BME280;50891;37.380;-122.076;2022-07-19T06:26:14;101124.44;;;29.62;34.98
64516;BME280;50891;37.380;-122.076;2022-07-19T06:28:41;101125.78;;;29.59;35.04
64516;BME280;50891;37.380;-122.076;2022-07-19T06:31:09;101132.28;;;29.58;34.94
64516;BME280;50891;37.380;-122.076;2022-07-19T06:33:36;101122.75;;;29.56;34.88
64516;BME280;50891;37.380;-122.076;2022-07-19T06:36:04;101119.72;;;29.52;35.17
64516;BME280;50891;37.380;-122.076;2022-07-19T06:38:30;101124.56;;;29.50;35.04
64516;BME280;50891;37.380;-122.076;2022-07-19T06:40:56;101126.44;;;29.50;34.77
64516;BME280;50891;37.380;-122.076;2022-07-19T06:43:22;101132.09;;;29.48;35.06
64516;BME280;50891;37.380;-122.076;2022-07-19T06:45:48;101134.25;;;29.46;34.89
64516;BME280;50891;37.380;-122.076;2022-07-19T06:48:15;101133.13;;;29.42;34.82
64516;BME280;50891;37.380;-122.076;2022-07-19T06:50:41;101130.31;;;29.37;34.88
64516;BME280;50891;37.380;-122.076;2022-07-19T06:53:07;101136.59;;;29.37;34.97
64516;BME280;50891;37.380;-122.076;2022-07-19T06:55:33;101123.28;;;29.36;35.14
64516;BME280;50891;37.380;-122.076;2022-07-19T06:57:59;101129.78;;;29.35;35.00
64516;BME280;50891;37.380;-122.076;2022-07-19T07:00:26;101126.72;;;29.31;35.19
64516;BME280;50891;37.380;-122.076;2022-07-19T07:02:52;101134.84;;;29.31;34.92
64516;BME280;50891;37.380;-122.076;2022-07-19T07:05:18;101132.16;;;29.31;35.01
64516;BME280;50891;37.380;-122.076;2022-07-19T07:07:45;101137.81;;;29.30;35.23
64516;BME280;50891;37.380;-122.076;2022-07-19T07:10:11;101131.56;;;29.29;35.23
64516;BME280;50891;37.380;-122.076;2022-07-19T07:12:37;101138.13;;;29.33;35.68
64516;BME280;50891;37.380;-122.076;2022-07-19T07:15:05;101134.09;;;29.36;35.61
64516;BME280;50891;37.380;-122.076;2022-07-19T07:17:32;101134.34;;;29.34;35.87
64516;BME280;50891;37.380;-122.076;2022-07-19T07:19:58;101132.72;;;29.33;36.04
64516;BME280;50891;37.380;-122.076;2022-07-19T07:22:25;101133.22;;;29.30;36.40
64516;BME280;50891;37.380;-122.076;2022-07-19T07:24:51;101135.59;;;29.27;36.55
64516;BME280;50891;37.380;-122.076;2022-07-19T07:27:17;101141.81;;;29.27;36.41
64516;BME280;50891;37.380;-122.076;2022-07-19T07:29:43;101133.97;;;29.26;36.80
64516;BME280;50891;37.380;-122.076;2022-07-19T07:32:10;101137.16;;;29.23;36.67
64516;BME280;50891;37.380;-122.076;2022-07-19T07:34:36;101137.41;;;29.21;36.95
64516;BME280;50891;37.380;-122.076;2022-07-19T07:37:02;101132.47;;;29.18;36.49
64516;BME280;50891;37.380;-122.076;2022-07-19T07:39:28;101129.69;;;29.13;36.50
64516;BME280;50891;37.380;-122.076;2022-07-19T07:41:54;101135.59;;;29.10;36.29
64516;BME280;50891;37.380;-122.076;2022-07-19T07:44:21;101132.78;;;29.05;36.56
64516;BME280;50891;37.380;-122.076;2022-07-19T07:46:47;101141.38;;;29.02;36.50
64516;BME280;50891;37.380;-122.076;2022-07-19T07:49:13;101131.28;;;28.97;36.58
64516;BME280;50891;37.380;-122.076;2022-07-19T07:51:39;101131.78;;;28.94;36.71
64516;BME280;50891;37.380;-122.076;2022-07-19T07:54:05;101132.38;;;28.96;36.84
64516;BME280;50891;37.380;-122.076;2022-07-19T07:56:31;101127.19;;;28.94;36.99
64516;BME280;50891;37.380;-122.076;2022-07-19T07:58:58;101125.06;;;28.96;36.64
64516;BME280;50891;37.380;-122.076;2022-07-19T08:01:24;101126.38;;;28.94;36.47
64516;BME280;50891;37.380;-122.076;2022-07-19T08:03:50;101125.28;;;28.95;36.92
64516;BME280;50891;37.380;-122.076;2022-07-19T08:06:16;101122.59;;;28.95;36.95
64516;BME280;50891;37.380;-122.076;2022-07-19T08:08:43;101128.50;;;28.92;36.94
64516;BME280;50891;37.380;-122.076;2022-07-19T08:11:09;101130.97;;;28.93;36.79
64516;BME280;50891;37.380;-122.076;2022-07-19T08:13:36;101132.03;;;28.92;37.12
64516;BME280;50891;37.380;-122.076;2022-07-19T08:16:02;101134.72;;;28.92;36.94
64516;BME280;50891;37.380;-122.076;2022-07-19T08:18:28;101137.44;;;28.92;37.17
64516;BME280;50891;37.380;-122.076;2022-07-19T08:20:54;101133.09;;;28.91;37.11
64516;BME280;50891;37.380;-122.076;2022-07-19T08:23:20;101135.81;;;28.91;37.23
64516;BME280;50891;37.380;-122.076;2022-07-19T08:25:47;101140.41;;;28.91;37.32
64516;BME280;50891;37.380;-122.076;2022-07-19T08:28:13;101138.53;;;28.91;37.52
64516;BME280;50891;37.380;-122.076;2022-07-19T08:30:39;101135.81;;;28.91;37.35
64516;BME280;50891;37.380;-122.076;2022-07-19T08:33:05;101141.47;;;28.90;37.31
64516;BME280;50891;37.380;-122.076;2022-07-19T08:35:34;101137.13;;;28.89;37.61
64516;BME280;50891;37.380;-122.076;2022-07-19T08:38:01;101130.91;;;28.88;37.50
64516;BME280;50891;37.380;-122.076;2022-07-19T08:40:27;101131.13;;;28.87;37.50
64516;BME280;50891;37.380;-122.076;2022-07-19T08:42:54;101131.38;;;28.85;37.43
64516;BME280;50891;37.380;-122.076;2022-07-19T08:45:23;101132.19;;;28.86;37.45
64516;BME280;50891;37.380;-122.076;2022-07-19T08:47:51;101130.78;;;28.83;37.37
64516;BME280;50891;37.380;-122.076;2022-07-19T08:50:18;101133.19;;;28.79;37.41
64516;BME280;50891;37.380;-122.076;2022-07-19T08:52:44;101133.41;;;28.78;37.69
64516;BME280;50891;37.380;-122.076;2022-07-19T08:55:11;101124.72;;;28.76;37.39
64516;BME280;50891;37.380;-122.076;2022-07-19T08:57:37;101128.50;;;28.75;37.48
64516;BME280;50891;37.380;-122.076;2022-07-19T09:00:21;101125.22;;;28.73;37.55
64516;BME280;50891;37.380;-122.076;2022-07-19T09:02:52;101130.63;;;28.73;37.24
64516;BME280;50891;37.380;-122.076;2022-07-19T09:05:19;101128.16;;;28.71;37.35
64516;BME280;50891;37.380;-122.076;2022-07-19T09:08:00;101131.13;;;28.70;37.26
64516;BME280;50891;37.380;-122.076;2022-07-19T09:10:26;101132.97;;;28.69;37.38
64516;BME280;50891;37.380;-122.076;2022-07-19T09:13:00;101127.25;;;28.66;37.56
64516;BME280;50891;37.380;-122.076;2022-07-19T09:15:56;101126.66;;;28.64;37.67
64516;BME280;50891;37.380;-122.076;2022-07-19T09:18:33;101120.66;;;28.62;37.53
64516;BME280;50891;37.380;-122.076;2022-07-19T09:21:05;101118.19;;;28.60;37.21
64516;BME280;50891;37.380;-122.076;2022-07-19T09:23:33;101121.16;;;28.58;37.27
64516;BME280;50891;37.380;-122.076;2022-07-19T09:26:02;101117.53;;;28.53;37.21
64516;BME280;50891;37.380;-122.076;2022-07-19T09:28:30;101117.44;;;28.48;37.28
64516;BME280;50891;37.380;-122.076;2022-07-19T09:30:58;101119.81;;;28.44;37.24
64516;BME280;50891;37.380;-122.076;2022-07-19T09:33:28;101124.03;;;28.40;37.05
64516;BME280;50891;37.380;-122.076;2022-07-19T09:35:59;101124.78;;;28.35;36.97
64516;BME280;50891;37.380;-122.076;2022-07-19T09:38:32;101129.00;;;28.31;37.21
64516;BME280;50891;37.380;-122.076;2022-07-19T09:41:19;101122.44;;;28.27;37.29
64516;BME280;50891;37.380;-122.076;2022-07-19T09:44:05;101122.13;;;28.24;37.15
64516;BME280;50891;37.380;-122.076;2022-07-19T09:46:36;101131.53;;;28.21;37.21
64516;BME280;50891;37.380;-122.076;2022-07-19T09:49:11;101122.00;;;28.19;37.24
64516;BME280;50891;37.380;-122.076;2022-07-19T09:51:50;101123.56;;;28.14;37.02
64516;BME280;50891;37.380;-122.076;2022-07-19T09:54:21;101130.84;;;28.14;37.19
64516;BME280;50891;37.380;-122.076;2022-07-19T09:56:51;101136.50;;;28.12;37.08
64516;BME280;50891;37.380;-122.076;2022-07-19T09:59:19;101127.19;;;28.08;36.99
64516;BME280;50891;37.380;-122.076;2022-07-19T10:01:47;101123.91;;;28.06;37.04
64516;BME280;50891;37.380;-122.076;2022-07-19T10:04:19;101122.50;;;28.04;36.98
64516;BME280;50891;37.380;-122.076;2022-07-19T10:06:47;101125.47;;;28.02;36.96
64516;BME280;50891;37.380;-122.076;2022-07-19T10:09:16;101128.63;;;27.99;37.18
64516;BME280;50891;37.380;-122.076;2022-07-19T10:11:43;101129.13;;;27.96;37.19
64516;BME280;50891;37.380;-122.076;2022-07-19T10:14:10;101129.63;;;27.93;37.19
64516;BME280;50891;37.380;-122.076;2022-07-19T10:17:18;101122.22;;;27.88;37.01
64516;BME280;50891;37.380;-122.076;2022-07-19T10:19:48;101125.38;;;27.85;37.07
64516;BME280;50891;37.380;-122.076;2022-07-19T10:22:21;101122.53;;;27.80;36.96
64516;BME280;50891;37.380;-122.076;2022-07-19T10:24:54;101125.94;;;27.75;37.20
64516;BME280;50891;37.380;-122.076;2022-07-19T10:32:30;101125.16;;;27.63;37.10
64516;BME280;50891;37.380;-122.076;2022-07-19T10:40:43;101125.50;;;27.55;37.16
64516;BME280;50891;37.380;-122.076;2022-07-19T10:43:14;101113.06;;;27.54;37.16
64516;BME280;50891;37.380;-122.076;2022-07-19T10:48:48;101120.56;;;27.52;37.13
64516;BME280;50891;37.380;-122.076;2022-07-19T10:53:56;101123.16;;;27.47;37.13
64516;BME280;50891;37.380;-122.076;2022-07-19T10:56:24;101118.00;;;27.45;37.28
64516;BME280;50891;37.380;-122.076;2022-07-19T10:59:11;101122.81;;;27.43;37.13
64516;BME280;50891;37.380;-122.076;2022-07-19T11:01:52;101126.22;;;27.39;37.12
64516;BME280;50891;37.380;-122.076;2022-07-19T11:06:49;101121.75;;;27.32;37.02
64516;BME280;50891;37.380;-122.076;2022-07-19T11:09:15;101128.47;;;27.30;37.10
64516;BME280;50891;37.380;-122.076;2022-07-19T11:11:41;101129.75;;;27.27;36.97
64516;BME280;50891;37.380;-122.076;2022-07-19T11:14:07;101142.66;;;27.25;37.10
64516;BME280;50891;37.380;-122.076;2022-07-19T11:16:34;101136.91;;;27.22;37.21
64516;BME280;50891;37.380;-122.076;2022-07-19T11:19:04;101141.06;;;27.18;37.03
64516;BME280;50891;37.380;-122.076;2022-07-19T11:21:31;101133.69;;;27.13;37.18
64516;BME280;50891;37.380;-122.076;2022-07-19T11:23:58;101138.72;;;27.09;37.23
64516;BME280;50891;37.380;-122.076;2022-07-19T11:26:25;101142.72;;;27.07;37.19
64516;BME280;50891;37.380;-122.076;2022-07-19T11:28:53;101142.34;;;27.03;37.42
64516;BME280;50891;37.380;-122.076;2022-07-19T11:31:21;101139.31;;;27.00;37.13
64516;BME280;50891;37.380;-122.076;2022-07-19T11:33:50;101138.72;;;26.98;37.10
64516;BME280;50891;37.380;-122.076;2022-07-19T11:36:18;101136.47;;;26.95;37.39
64516;BME280;50891;37.380;-122.076;2022-07-19T11:38:50;101140.22;;;26.94;37.11
64516;BME280;50891;37.380;-122.076;2022-07-19T11:41:19;101141.50;;;26.91;37.32
64516;BME280;50891;37.380;-122.076;2022-07-19T11:43:53;101139.50;;;26.86;37.42
64516;BME280;50891;37.380;-122.076;2022-07-19T11:46:30;101144.91;;;26.86;37.27
64516;BME280;50891;37.380;-122.076;2022-07-19T11:48:59;101156.19;;;26.83;37.37
64516;BME280;50891;37.380;-122.076;2022-07-19T11:51:27;101149.13;;;26.82;37.27
64516;BME280;50891;37.380;-122.076;2022-07-19T11:53:55;101147.91;;;26.78;37.35
64516;BME280;50891;37.380;-122.076;2022-07-19T11:56:23;101149.59;;;26.79;37.41
64516;BME280;50891;37.380;-122.076;2022-07-19T11:58:54;101144.66;;;26.76;37.41
64516;BME280;50891;37.380;-122.076;2022-07-19T12:01:35;101150.06;;;26.76;37.30
64516;BME280;50891;37.380;-122.076;2022-07-19T12:04:05;101148.84;;;26.72;37.54
64516;BME280;50891;37.380;-122.076;2022-07-19T12:09:09;101156.81;;;26.67;37.40
64516;BME280;50891;37.380;-122.076;2022-07-19T12:11:44;101157.25;;;26.64;37.34
64516;BME280;50891;37.380;-122.076;2022-07-19T12:14:37;101155.25;;;26.59;37.53
64516;BME280;50891;37.380;-122.076;2022-07-19T12:17:21;101164.88;;;26.55;37.70
64516;BME280;50891;37.380;-122.076;2022-07-19T12:19:49;101162.84;;;26.51;37.31
64516;BME280;50891;37.380;-122.076;2022-07-19T12:22:38;101168.44;;;26.49;37.70
64516;BME280;50891;37.380;-122.076;2022-07-19T12:25:07;101174.88;;;26.48;37.87
64516;BME280;50891;37.380;-122.076;2022-07-19T12:27:34;101177.81;;;26.46;37.75
64516;BME280;50891;37.380;-122.076;2022-07-19T12:30:00;101185.66;;;26.48;37.73
64516;BME280;50891;37.380;-122.076;2022-07-19T12:32:32;101180.50;;;26.46;37.83
64516;BME280;50891;37.380;-122.076;2022-07-19T12:35:11;101172.41;;;26.46;37.83
64516;BME280;50891;37.380;-122.076;2022-07-19T12:37:41;101172.41;;;26.46;37.73
64516;BME280;50891;37.380;-122.076;2022-07-19T12:40:10;101184.25;;;26.45;37.80
64516;BME280;50891;37.380;-122.076;2022-07-19T12:42:37;101185.31;;;26.44;37.68
64516;BME280;50891;37.380;-122.076;2022-07-19T12:45:09;101191.78;;;26.43;37.74
64516;BME280;50891;37.380;-122.076;2022-07-19T12:47:36;101190.09;;;26.42;37.55